SWA2408 KLAS-KSAN
Flight info
| Callsign | SWA2408 |
|---|---|
| Flight time | 0h 42m |
| Altitude | 26000 |
| Route | RADYR2 LVELL LUCKI1 |
| Aircraft | B38M/M-SADE2E3GHIJ4J7P2RWZ/LB1D1 |
Departure
| Time | 2026-05-01 14:13 |
|---|---|
| Airport | Harry Reid International Airport (KLAS) |
Arrival
| Time | 2026-05-01 14:56 |
|---|---|
| Airport | San Diego International Airport (KSAN) |
| Time | Latitude | Longitude | Altitude | Speed | Heading |
|---|---|---|---|---|---|
| 2026-05-01 13:54 | 36.08263 | -115.15219 | 2121 ft | 0 kts | 344° |
| 2026-05-01 14:04 | 36.08262 | -115.15219 | 2121 ft | 2 kts | 344° |
| 2026-05-01 14:04 | 36.08240 | -115.15211 | 2134 ft | 4 kts | 338° |
| 2026-05-01 14:04 | 36.08222 | -115.15193 | 2122 ft | 4 kts | 291° |
| 2026-05-01 14:04 | 36.08220 | -115.15175 | 2124 ft | 4 kts | 249° |
| 2026-05-01 14:05 | 36.08225 | -115.15163 | 2122 ft | 0 kts | 240° |
| 2026-05-01 14:08 | 36.08224 | -115.15164 | 2121 ft | 1 kts | 239° |
| 2026-05-01 14:08 | 36.08214 | -115.15179 | 2123 ft | 4 kts | 220° |
| 2026-05-01 14:09 | 36.08181 | -115.15191 | 2122 ft | 6 kts | 183° |
| 2026-05-01 14:09 | 36.08130 | -115.15187 | 2127 ft | 8 kts | 179° |
| 2026-05-01 14:09 | 36.08070 | -115.15189 | 2127 ft | 9 kts | 185° |
| 2026-05-01 14:09 | 36.07996 | -115.15199 | 2129 ft | 13 kts | 185° |
| 2026-05-01 14:10 | 36.07889 | -115.15200 | 2129 ft | 18 kts | 179° |
| 2026-05-01 14:10 | 36.07802 | -115.15284 | 2130 ft | 17 kts | 268° |
| 2026-05-01 14:10 | 36.07803 | -115.15434 | 2131 ft | 18 kts | 269° |
| 2026-05-01 14:10 | 36.07802 | -115.15607 | 2127 ft | 22 kts | 269° |
| 2026-05-01 14:11 | 36.07801 | -115.15804 | 2127 ft | 23 kts | 271° |
| 2026-05-01 14:11 | 36.07802 | -115.16242 | 2124 ft | 24 kts | 265° |
| 2026-05-01 14:11 | 36.07688 | -115.16371 | 2124 ft | 24 kts | 204° |
| 2026-05-01 14:12 | 36.07536 | -115.16462 | 2127 ft | 24 kts | 206° |
| 2026-05-01 14:12 | 36.07401 | -115.16549 | 2130 ft | 20 kts | 229° |
| 2026-05-01 14:12 | 36.07437 | -115.16710 | 2124 ft | 23 kts | 335° |
| 2026-05-01 14:12 | 36.07620 | -115.16634 | 2127 ft | 49 kts | 25° |
| 2026-05-01 14:13 | 36.08163 | -115.16325 | 2124 ft | 119 kts | 25° |
| 2026-05-01 14:13 | 36.08742 | -115.15994 | 2129 ft | 157 kts | 24° |
| 2026-05-01 14:13 | 36.10237 | -115.15136 | 2604 ft | 187 kts | 26° |
| 2026-05-01 14:13 | 36.11413 | -115.14484 | 3434 ft | 185 kts | 16° |
| 2026-05-01 14:14 | 36.12737 | -115.14511 | 4066 ft | 206 kts | 338° |
| 2026-05-01 14:14 | 36.13777 | -115.15786 | 4865 ft | 223 kts | 297° |
| 2026-05-01 14:14 | 36.14013 | -115.17749 | 5631 ft | 247 kts | 264° |
| 2026-05-01 14:14 | 36.13335 | -115.19798 | 6282 ft | 272 kts | 241° |
| 2026-05-01 14:15 | 36.12315 | -115.21897 | 6798 ft | 295 kts | 243° |
| 2026-05-01 14:15 | 36.11376 | -115.24172 | 7762 ft | 295 kts | 246° |
| 2026-05-01 14:15 | 36.10518 | -115.26422 | 9063 ft | 286 kts | 248° |
| 2026-05-01 14:15 | 36.09670 | -115.28682 | 9970 ft | 294 kts | 245° |
| 2026-05-01 14:16 | 36.08518 | -115.30799 | 10766 ft | 305 kts | 227° |
| 2026-05-01 14:16 | 36.06676 | -115.32263 | 11165 ft | 330 kts | 200° |
| 2026-05-01 14:16 | 36.04383 | -115.32801 | 11897 ft | 339 kts | 186° |
| 2026-05-01 14:16 | 36.02046 | -115.33114 | 12864 ft | 340 kts | 191° |
| 2026-05-01 14:17 | 35.99700 | -115.33723 | 13572 ft | 349 kts | 197° |
| 2026-05-01 14:17 | 35.97368 | -115.34647 | 14293 ft | 354 kts | 202° |
| 2026-05-01 14:17 | 35.95054 | -115.35738 | 15069 ft | 358 kts | 204° |
| 2026-05-01 14:17 | 35.92707 | -115.36875 | 15724 ft | 367 kts | 203° |
| 2026-05-01 14:18 | 35.90176 | -115.37554 | 16358 ft | 377 kts | 186° |
| 2026-05-01 14:18 | 35.87544 | -115.37769 | 17137 ft | 382 kts | 185° |
| 2026-05-01 14:18 | 35.84871 | -115.37934 | 17806 ft | 386 kts | 185° |
| 2026-05-01 14:18 | 35.83083 | -115.38023 | 18283 ft | 389 kts | 185° |
| 2026-05-01 14:19 | 35.79428 | -115.38176 | 19056 ft | 396 kts | 185° |
| 2026-05-01 14:19 | 35.76656 | -115.38276 | 19631 ft | 401 kts | 185° |
| 2026-05-01 14:19 | 35.73848 | -115.38371 | 20196 ft | 406 kts | 185° |
| 2026-05-01 14:19 | 35.71011 | -115.38463 | 20749 ft | 410 kts | 185° |
| 2026-05-01 14:20 | 35.68142 | -115.38556 | 21297 ft | 415 kts | 186° |
| 2026-05-01 14:20 | 35.62337 | -115.38743 | 22364 ft | 424 kts | 186° |
| 2026-05-01 14:20 | 35.59356 | -115.38616 | 22897 ft | 432 kts | 180° |
| 2026-05-01 14:21 | 35.56339 | -115.38366 | 23424 ft | 437 kts | 181° |
| 2026-05-01 14:21 | 35.53292 | -115.38137 | 23877 ft | 441 kts | 181° |
| 2026-05-01 14:21 | 35.50209 | -115.37921 | 24351 ft | 444 kts | 182° |
| 2026-05-01 14:22 | 35.43997 | -115.37496 | 25260 ft | 450 kts | 182° |
| 2026-05-01 14:22 | 35.40864 | -115.37283 | 25713 ft | 452 kts | 182° |
| 2026-05-01 14:22 | 35.37698 | -115.37068 | 25942 ft | 458 kts | 182° |
| 2026-05-01 14:22 | 35.34483 | -115.36850 | 25997 ft | 468 kts | 182° |
| 2026-05-01 14:23 | 35.31200 | -115.36627 | 25965 ft | 475 kts | 182° |
| 2026-05-01 14:23 | 35.27932 | -115.36406 | 25978 ft | 476 kts | 182° |
| 2026-05-01 14:23 | 35.24617 | -115.36181 | 25994 ft | 476 kts | 182° |
| 2026-05-01 14:23 | 35.21305 | -115.35957 | 25939 ft | 476 kts | 182° |
| 2026-05-01 14:24 | 35.17991 | -115.35734 | 25965 ft | 476 kts | 182° |
| 2026-05-01 14:24 | 35.14682 | -115.35511 | 25959 ft | 475 kts | 182° |
| 2026-05-01 14:24 | 35.11384 | -115.35284 | 25946 ft | 475 kts | 182° |
| 2026-05-01 14:24 | 35.08089 | -115.35055 | 25970 ft | 475 kts | 182° |
| 2026-05-01 14:25 | 35.05906 | -115.34903 | 25982 ft | 475 kts | 182° |
| 2026-05-01 14:25 | 35.02604 | -115.34672 | 25890 ft | 474 kts | 182° |
| 2026-05-01 14:25 | 34.99310 | -115.34442 | 25931 ft | 475 kts | 182° |
| 2026-05-01 14:25 | 34.96008 | -115.34212 | 25937 ft | 475 kts | 182° |
| 2026-05-01 14:26 | 34.92716 | -115.33984 | 25906 ft | 474 kts | 182° |
| 2026-05-01 14:26 | 34.86133 | -115.33526 | 25918 ft | 473 kts | 182° |
| 2026-05-01 14:26 | 34.82844 | -115.33298 | 25902 ft | 473 kts | 182° |
| 2026-05-01 14:27 | 34.79563 | -115.33213 | 25889 ft | 466 kts | 191° |
| 2026-05-01 14:27 | 34.76444 | -115.34027 | 25896 ft | 453 kts | 205° |
| 2026-05-01 14:27 | 34.73482 | -115.35222 | 25885 ft | 454 kts | 205° |
| 2026-05-01 14:28 | 34.67536 | -115.37735 | 25900 ft | 451 kts | 206° |
| 2026-05-01 14:28 | 34.64578 | -115.39018 | 25886 ft | 451 kts | 206° |
| 2026-05-01 14:28 | 34.61627 | -115.40306 | 25888 ft | 451 kts | 207° |
| 2026-05-01 14:28 | 34.58675 | -115.41595 | 25887 ft | 451 kts | 207° |
| 2026-05-01 14:29 | 34.55725 | -115.42883 | 25879 ft | 451 kts | 206° |
| 2026-05-01 14:29 | 34.52767 | -115.44174 | 25879 ft | 451 kts | 206° |
| 2026-05-01 14:30 | 34.43908 | -115.48032 | 25859 ft | 451 kts | 206° |
| 2026-05-01 14:30 | 34.40954 | -115.49318 | 25870 ft | 451 kts | 206° |
| 2026-05-01 14:30 | 34.38005 | -115.50600 | 25873 ft | 450 kts | 206° |
| 2026-05-01 14:31 | 34.32198 | -115.53274 | 25868 ft | 442 kts | 216° |
| 2026-05-01 14:31 | 34.29590 | -115.55191 | 25888 ft | 439 kts | 218° |
| 2026-05-01 14:31 | 34.26978 | -115.57106 | 25876 ft | 439 kts | 218° |
| 2026-05-01 14:31 | 34.24363 | -115.59030 | 25879 ft | 439 kts | 218° |
| 2026-05-01 14:32 | 34.21752 | -115.60948 | 25873 ft | 440 kts | 217° |
| 2026-05-01 14:32 | 34.18929 | -115.62486 | 25886 ft | 449 kts | 207° |
| 2026-05-01 14:32 | 34.16018 | -115.63848 | 25864 ft | 448 kts | 208° |
| 2026-05-01 14:32 | 34.13112 | -115.65226 | 25880 ft | 449 kts | 208° |
| 2026-05-01 14:33 | 34.10200 | -115.66602 | 25890 ft | 449 kts | 207° |
| 2026-05-01 14:33 | 34.07283 | -115.67979 | 25888 ft | 450 kts | 207° |
| 2026-05-01 14:33 | 34.04370 | -115.69353 | 25888 ft | 450 kts | 207° |
| 2026-05-01 14:33 | 34.01457 | -115.70724 | 25842 ft | 450 kts | 207° |
| 2026-05-01 14:34 | 33.98541 | -115.72097 | 25899 ft | 450 kts | 208° |
| 2026-05-01 14:34 | 33.95625 | -115.73471 | 25890 ft | 450 kts | 207° |
| 2026-05-01 14:34 | 33.92716 | -115.74846 | 25892 ft | 449 kts | 208° |
| 2026-05-01 14:34 | 33.89825 | -115.76265 | 25868 ft | 449 kts | 208° |
| 2026-05-01 14:35 | 33.86930 | -115.77683 | 25893 ft | 449 kts | 208° |
| 2026-05-01 14:35 | 33.84027 | -115.79102 | 25881 ft | 449 kts | 208° |
| 2026-05-01 14:35 | 33.81168 | -115.80497 | 25888 ft | 449 kts | 208° |
| 2026-05-01 14:35 | 33.78277 | -115.81906 | 25879 ft | 449 kts | 208° |
| 2026-05-01 14:36 | 33.75364 | -115.83277 | 25890 ft | 449 kts | 207° |
| 2026-05-01 14:36 | 33.72452 | -115.84641 | 25887 ft | 449 kts | 207° |
| 2026-05-01 14:36 | 33.69542 | -115.86006 | 25869 ft | 449 kts | 207° |
| 2026-05-01 14:36 | 33.66636 | -115.87370 | 25888 ft | 449 kts | 207° |
| 2026-05-01 14:37 | 33.63724 | -115.88734 | 25874 ft | 449 kts | 207° |
| 2026-05-01 14:37 | 33.60814 | -115.90098 | 25885 ft | 448 kts | 207° |
| 2026-05-01 14:37 | 33.57908 | -115.91458 | 25876 ft | 448 kts | 207° |
| 2026-05-01 14:37 | 33.55004 | -115.92817 | 25867 ft | 444 kts | 207° |
| 2026-05-01 14:38 | 33.52343 | -115.94514 | 25366 ft | 426 kts | 224° |
| 2026-05-01 14:38 | 33.50318 | -115.96971 | 25065 ft | 404 kts | 238° |
| 2026-05-01 14:38 | 33.48640 | -115.99646 | 24740 ft | 401 kts | 239° |
| 2026-05-01 14:38 | 33.47004 | -116.02339 | 24266 ft | 399 kts | 239° |
| 2026-05-01 14:39 | 33.45420 | -116.05002 | 23791 ft | 396 kts | 240° |
| 2026-05-01 14:39 | 33.43835 | -116.07697 | 23292 ft | 394 kts | 240° |
| 2026-05-01 14:39 | 33.42269 | -116.10378 | 22745 ft | 392 kts | 240° |
| 2026-05-01 14:39 | 33.40713 | -116.13049 | 22280 ft | 390 kts | 240° |
| 2026-05-01 14:40 | 33.39168 | -116.15703 | 21821 ft | 388 kts | 240° |
| 2026-05-01 14:40 | 33.37633 | -116.18344 | 21287 ft | 384 kts | 240° |
| 2026-05-01 14:40 | 33.36110 | -116.20956 | 20924 ft | 383 kts | 240° |
| 2026-05-01 14:40 | 33.34540 | -116.23529 | 20445 ft | 385 kts | 233° |
| 2026-05-01 14:41 | 33.32449 | -116.25604 | 19856 ft | 397 kts | 214° |
| 2026-05-01 14:41 | 33.29992 | -116.27129 | 19419 ft | 396 kts | 211° |
| 2026-05-01 14:41 | 33.27535 | -116.28613 | 18978 ft | 394 kts | 211° |
| 2026-05-01 14:41 | 33.25084 | -116.30072 | 18521 ft | 393 kts | 210° |
| 2026-05-01 14:42 | 33.22632 | -116.31516 | 18027 ft | 392 kts | 210° |
| 2026-05-01 14:42 | 33.20181 | -116.32954 | 17507 ft | 391 kts | 210° |
| 2026-05-01 14:42 | 33.17774 | -116.34363 | 17011 ft | 390 kts | 209° |
| 2026-05-01 14:42 | 33.15340 | -116.35787 | 16535 ft | 388 kts | 209° |
| 2026-05-01 14:43 | 33.12920 | -116.37203 | 16071 ft | 385 kts | 209° |
| 2026-05-01 14:43 | 33.10518 | -116.38605 | 15643 ft | 383 kts | 208° |
| 2026-05-01 14:43 | 33.08132 | -116.39997 | 15185 ft | 381 kts | 208° |
| 2026-05-01 14:43 | 33.05757 | -116.41383 | 14735 ft | 379 kts | 208° |
| 2026-05-01 14:44 | 33.03419 | -116.42746 | 14285 ft | 369 kts | 207° |
| 2026-05-01 14:44 | 32.99171 | -116.45767 | 13317 ft | 344 kts | 223° |
| 2026-05-01 14:44 | 32.97376 | -116.47616 | 12894 ft | 339 kts | 222° |
| 2026-05-01 14:45 | 32.95583 | -116.49436 | 12506 ft | 337 kts | 222° |
| 2026-05-01 14:45 | 32.92016 | -116.53039 | 11730 ft | 335 kts | 221° |
| 2026-05-01 14:45 | 32.90261 | -116.54809 | 11331 ft | 334 kts | 221° |
| 2026-05-01 14:46 | 32.88510 | -116.56573 | 10919 ft | 325 kts | 221° |
| 2026-05-01 14:46 | 32.85133 | -116.59972 | 9905 ft | 314 kts | 220° |
| 2026-05-01 14:46 | 32.83472 | -116.61647 | 9284 ft | 312 kts | 220° |
| 2026-05-01 14:47 | 32.81821 | -116.63309 | 8716 ft | 309 kts | 220° |
| 2026-05-01 14:47 | 32.80204 | -116.64937 | 8321 ft | 299 kts | 220° |
| 2026-05-01 14:47 | 32.78650 | -116.66500 | 8050 ft | 286 kts | 220° |
| 2026-05-01 14:48 | 32.76307 | -116.70088 | 7570 ft | 276 kts | 242° |
| 2026-05-01 14:48 | 32.75362 | -116.72082 | 7211 ft | 278 kts | 242° |
| 2026-05-01 14:48 | 32.73466 | -116.76079 | 6571 ft | 278 kts | 242° |
| 2026-05-01 14:49 | 32.71594 | -116.80025 | 6082 ft | 263 kts | 242° |
| 2026-05-01 14:49 | 32.70134 | -116.83703 | 5812 ft | 236 kts | 252° |
| 2026-05-01 14:50 | 32.69379 | -116.86122 | 5418 ft | 236 kts | 251° |
| 2026-05-01 14:50 | 32.67919 | -116.90992 | 4612 ft | 237 kts | 254° |
| 2026-05-01 14:51 | 32.67410 | -116.92864 | 4242 ft | 238 kts | 262° |
| 2026-05-01 14:51 | 32.67951 | -116.96628 | 3614 ft | 227 kts | 287° |
| 2026-05-01 14:52 | 32.68737 | -116.99938 | 3172 ft | 196 kts | 287° |
| 2026-05-01 14:52 | 32.69101 | -117.01449 | 2932 ft | 184 kts | 287° |
| 2026-05-01 14:52 | 32.69763 | -117.04220 | 2684 ft | 169 kts | 286° |
| 2026-05-01 14:53 | 32.70084 | -117.05570 | 2695 ft | 169 kts | 286° |
| 2026-05-01 14:53 | 32.70405 | -117.06905 | 2616 ft | 167 kts | 286° |
| 2026-05-01 14:53 | 32.70723 | -117.08209 | 2137 ft | 169 kts | 286° |
| 2026-05-01 14:53 | 32.71050 | -117.09551 | 1574 ft | 167 kts | 286° |
| 2026-05-01 14:54 | 32.71364 | -117.10851 | 1266 ft | 152 kts | 286° |
| 2026-05-01 14:54 | 32.71660 | -117.12034 | 995 ft | 151 kts | 287° |
| 2026-05-01 14:54 | 32.71968 | -117.13220 | 830 ft | 149 kts | 287° |
| 2026-05-01 14:54 | 32.72257 | -117.14420 | 694 ft | 154 kts | 286° |
| 2026-05-01 14:55 | 32.72557 | -117.15661 | 514 ft | 157 kts | 285° |
| 2026-05-01 14:55 | 32.72853 | -117.16897 | 237 ft | 153 kts | 286° |
| 2026-05-01 14:55 | 32.73140 | -117.18083 | 44 ft | 143 kts | 286° |
| 2026-05-01 14:55 | 32.73378 | -117.19058 | 27 ft | 94 kts | 286° |
| 2026-05-01 14:56 | 32.73512 | -117.19607 | 30 ft | 54 kts | 285° |
| 2026-05-01 14:56 | 32.73500 | -117.19848 | 30 ft | 23 kts | 237° |
| 2026-05-01 14:56 | 32.73417 | -117.19965 | 29 ft | 17 kts | 196° |
| 2026-05-01 14:56 | 32.73378 | -117.19973 | 29 ft | 3 kts | 191° |
| 2026-05-01 14:57 | 32.73356 | -117.19994 | 29 ft | 5 kts | 248° |
| 2026-05-01 14:57 | 32.73347 | -117.20057 | 28 ft | 0 kts | 264° |